sensor_id;sensor_type;location;lat;lon;timestamp;P1;durP1;ratioP1;P2;durP2;ratioP2
23163;SDS011;31429;42.674;23.350;2022-09-09T00:00:05;19.43;;;16.87;;
23163;SDS011;31429;42.674;23.350;2022-09-09T00:01:15;17.53;;;15.70;;
23163;SDS011;31429;42.674;23.350;2022-09-09T00:02:27;18.70;;;15.97;;
23163;SDS011;31429;42.674;23.350;2022-09-09T00:03:30;19.63;;;16.77;;
23163;SDS011;31429;42.674;23.350;2022-09-09T00:05:04;18.73;;;16.80;;
23163;SDS011;31429;42.674;23.350;2022-09-09T00:06:18;19.17;;;17.27;;
23163;SDS011;31429;42.674;23.350;2022-09-09T00:07:25;18.50;;;16.63;;
23163;SDS011;31429;42.674;23.350;2022-09-09T00:08:42;23.70;;;20.20;;
23163;SDS011;31429;42.674;23.350;2022-09-09T00:09:53;18.30;;;16.27;;
23163;SDS011;31429;42.674;23.350;2022-09-09T00:11:03;20.43;;;16.63;;
23163;SDS011;31429;42.674;23.350;2022-09-09T00:12:08;17.77;;;16.13;;
23163;SDS011;31429;42.674;23.350;2022-09-09T00:13:14;19.23;;;17.27;;
23163;SDS011;31429;42.674;23.350;2022-09-09T00:14:22;20.60;;;16.53;;
23163;SDS011;31429;42.674;23.350;2022-09-09T00:15:52;19.23;;;16.80;;
23163;SDS011;31429;42.674;23.350;2022-09-09T00:16:58;20.80;;;16.47;;
23163;SDS011;31429;42.674;23.350;2022-09-09T00:18:24;20.07;;;16.23;;
23163;SDS011;31429;42.674;23.350;2022-09-09T00:19:48;18.73;;;16.77;;
23163;SDS011;31429;42.674;23.350;2022-09-09T00:20:58;19.03;;;17.13;;
23163;SDS011;31429;42.674;23.350;2022-09-09T00:22:22;21.03;;;18.50;;
23163;SDS011;31429;42.674;23.350;2022-09-09T00:23:27;25.23;;;20.80;;
23163;SDS011;31429;42.674;23.350;2022-09-09T00:24:32;23.77;;;21.27;;
23163;SDS011;31429;42.674;23.350;2022-09-09T00:25:40;26.50;;;20.63;;
23163;SDS011;31429;42.674;23.350;2022-09-09T00:26:47;22.47;;;20.07;;
23163;SDS011;31429;42.674;23.350;2022-09-09T00:27:51;25.03;;;21.07;;
23163;SDS011;31429;42.674;23.350;2022-09-09T00:28:57;21.00;;;18.70;;
23163;SDS011;31429;42.674;23.350;2022-09-09T00:30:14;21.67;;;16.90;;
23163;SDS011;31429;42.674;23.350;2022-09-09T00:31:36;18.70;;;16.83;;
23163;SDS011;31429;42.674;23.350;2022-09-09T00:32:37;18.77;;;16.47;;
23163;SDS011;31429;42.674;23.350;2022-09-09T00:33:39;18.00;;;15.97;;
23163;SDS011;31429;42.674;23.350;2022-09-09T00:34:47;19.33;;;17.10;;
23163;SDS011;31429;42.674;23.350;2022-09-09T00:35:51;19.10;;;16.40;;
23163;SDS011;31429;42.674;23.350;2022-09-09T00:36:56;17.33;;;15.60;;
23163;SDS011;31429;42.674;23.350;2022-09-09T00:37:58;20.70;;;16.67;;
23163;SDS011;31429;42.674;23.350;2022-09-09T00:39:05;18.80;;;15.43;;
23163;SDS011;31429;42.674;23.350;2022-09-09T00:40:18;17.40;;;15.73;;
23163;SDS011;31429;42.674;23.350;2022-09-09T00:41:34;19.90;;;17.77;;
23163;SDS011;31429;42.674;23.350;2022-09-09T00:42:51;20.20;;;17.60;;
23163;SDS011;31429;42.674;23.350;2022-09-09T00:44:02;21.63;;;19.43;;
23163;SDS011;31429;42.674;23.350;2022-09-09T00:45:19;21.90;;;19.57;;
23163;SDS011;31429;42.674;23.350;2022-09-09T00:46:49;21.00;;;16.53;;
23163;SDS011;31429;42.674;23.350;2022-09-09T00:47:56;19.73;;;17.83;;
23163;SDS011;31429;42.674;23.350;2022-09-09T00:49:00;18.57;;;16.70;;
23163;SDS011;31429;42.674;23.350;2022-09-09T00:50:13;20.10;;;16.80;;
23163;SDS011;31429;42.674;23.350;2022-09-09T00:51:36;20.20;;;16.40;;
23163;SDS011;31429;42.674;23.350;2022-09-09T00:52:52;18.77;;;16.87;;
23163;SDS011;31429;42.674;23.350;2022-09-09T00:54:07;20.90;;;18.80;;
23163;SDS011;31429;42.674;23.350;2022-09-09T00:55:28;24.80;;;20.17;;
23163;SDS011;31429;42.674;23.350;2022-09-09T00:56:43;21.57;;;19.30;;
23163;SDS011;31429;42.674;23.350;2022-09-09T00:57:53;20.23;;;17.73;;
23163;SDS011;31429;42.674;23.350;2022-09-09T00:58:57;22.63;;;18.73;;
23163;SDS011;31429;42.674;23.350;2022-09-09T01:00:19;22.97;;;17.80;;
23163;SDS011;31429;42.674;23.350;2022-09-09T01:01:36;21.17;;;18.87;;
23163;SDS011;31429;42.674;23.350;2022-09-09T01:02:42;21.83;;;18.27;;
23163;SDS011;31429;42.674;23.350;2022-09-09T01:03:52;22.53;;;19.47;;
23163;SDS011;31429;42.674;23.350;2022-09-09T01:04:54;20.37;;;18.23;;
23163;SDS011;31429;42.674;23.350;2022-09-09T01:06:12;19.87;;;17.80;;
23163;SDS011;31429;42.674;23.350;2022-09-09T01:07:34;21.53;;;19.07;;
23163;SDS011;31429;42.674;23.350;2022-09-09T01:10:26;20.07;;;16.67;;
23163;SDS011;31429;42.674;23.350;2022-09-09T01:12:07;22.13;;;16.50;;
23163;SDS011;31429;42.674;23.350;2022-09-09T01:13:38;19.67;;;16.97;;
23163;SDS011;31429;42.674;23.350;2022-09-09T01:14:43;23.77;;;21.20;;
23163;SDS011;31429;42.674;23.350;2022-09-09T01:15:48;20.17;;;18.03;;
23163;SDS011;31429;42.674;23.350;2022-09-09T01:16:53;21.43;;;18.20;;
23163;SDS011;31429;42.674;23.350;2022-09-09T01:18:04;20.13;;;17.13;;
23163;SDS011;31429;42.674;23.350;2022-09-09T01:19:10;18.63;;;16.27;;
23163;SDS011;31429;42.674;23.350;2022-09-09T01:20:34;19.03;;;16.87;;
23163;SDS011;31429;42.674;23.350;2022-09-09T01:21:44;19.93;;;17.03;;
23163;SDS011;31429;42.674;23.350;2022-09-09T01:23:29;20.27;;;17.60;;
23163;SDS011;31429;42.674;23.350;2022-09-09T01:25:01;20.90;;;16.80;;
23163;SDS011;31429;42.674;23.350;2022-09-09T01:26:24;19.47;;;17.67;;
23163;SDS011;31429;42.674;23.350;2022-09-09T01:34:09;21.00;;;18.63;;
23163;SDS011;31429;42.674;23.350;2022-09-09T01:35:37;21.23;;;17.07;;
23163;SDS011;31429;42.674;23.350;2022-09-09T01:36:51;19.40;;;17.40;;
23163;SDS011;31429;42.674;23.350;2022-09-09T01:38:32;18.87;;;16.97;;
23163;SDS011;31429;42.674;23.350;2022-09-09T01:40:51;20.47;;;18.47;;
23163;SDS011;31429;42.674;23.350;2022-09-09T01:42:09;21.33;;;18.87;;
23163;SDS011;31429;42.674;23.350;2022-09-09T01:43:15;21.53;;;18.93;;
23163;SDS011;31429;42.674;23.350;2022-09-09T01:48:37;19.60;;;17.60;;
23163;SDS011;31429;42.674;23.350;2022-09-09T01:49:39;19.60;;;17.50;;
23163;SDS011;31429;42.674;23.350;2022-09-09T01:51:22;18.93;;;16.90;;
23163;SDS011;31429;42.674;23.350;2022-09-09T01:52:23;19.83;;;17.27;;
23163;SDS011;31429;42.674;23.350;2022-09-09T01:53:25;18.67;;;16.60;;
23163;SDS011;31429;42.674;23.350;2022-09-09T01:54:29;19.97;;;17.77;;
23163;SDS011;31429;42.674;23.350;2022-09-09T01:55:36;18.97;;;17.07;;
23163;SDS011;31429;42.674;23.350;2022-09-09T01:56:47;18.87;;;17.03;;
23163;SDS011;31429;42.674;23.350;2022-09-09T01:58:06;17.23;;;15.53;;
23163;SDS011;31429;42.674;23.350;2022-09-09T02:00:49;18.57;;;16.63;;
23163;SDS011;31429;42.674;23.350;2022-09-09T02:02:33;20.30;;;18.17;;
23163;SDS011;31429;42.674;23.350;2022-09-09T02:03:59;18.87;;;16.93;;
23163;SDS011;31429;42.674;23.350;2022-09-09T02:05:07;20.17;;;18.07;;
23163;SDS011;31429;42.674;23.350;2022-09-09T02:06:19;19.00;;;17.20;;
23163;SDS011;31429;42.674;23.350;2022-09-09T02:08:03;22.00;;;18.37;;
23163;SDS011;31429;42.674;23.350;2022-09-09T02:09:10;20.10;;;18.00;;
23163;SDS011;31429;42.674;23.350;2022-09-09T02:10:24;19.30;;;17.00;;
23163;SDS011;31429;42.674;23.350;2022-09-09T02:11:40;18.33;;;16.43;;
23163;SDS011;31429;42.674;23.350;2022-09-09T02:12:46;17.60;;;15.83;;
23163;SDS011;31429;42.674;23.350;2022-09-09T02:14:17;17.77;;;15.97;;
23163;SDS011;31429;42.674;23.350;2022-09-09T02:15:27;20.13;;;17.63;;
23163;SDS011;31429;42.674;23.350;2022-09-09T02:16:37;19.33;;;16.97;;
23163;SDS011;31429;42.674;23.350;2022-09-09T02:18:22;18.83;;;16.83;;
23163;SDS011;31429;42.674;23.350;2022-09-09T02:19:28;19.43;;;17.03;;
23163;SDS011;31429;42.674;23.350;2022-09-09T02:20:36;19.53;;;17.13;;
23163;SDS011;31429;42.674;23.350;2022-09-09T02:21:39;19.97;;;17.87;;
23163;SDS011;31429;42.674;23.350;2022-09-09T02:23:10;20.47;;;17.93;;
23163;SDS011;31429;42.674;23.350;2022-09-09T02:24:18;18.43;;;16.43;;
23163;SDS011;31429;42.674;23.350;2022-09-09T02:25:19;19.63;;;17.40;;
23163;SDS011;31429;42.674;23.350;2022-09-09T02:26:26;19.23;;;17.23;;
23163;SDS011;31429;42.674;23.350;2022-09-09T02:31:38;18.63;;;16.67;;
23163;SDS011;31429;42.674;23.350;2022-09-09T02:32:41;18.40;;;15.97;;
23163;SDS011;31429;42.674;23.350;2022-09-09T02:33:48;21.03;;;16.73;;
23163;SDS011;31429;42.674;23.350;2022-09-09T02:34:54;18.70;;;16.70;;
23163;SDS011;31429;42.674;23.350;2022-09-09T02:36:06;19.87;;;17.07;;
23163;SDS011;31429;42.674;23.350;2022-09-09T02:37:37;20.50;;;17.27;;
23163;SDS011;31429;42.674;23.350;2022-09-09T02:38:53;18.40;;;16.53;;
23163;SDS011;31429;42.674;23.350;2022-09-09T02:40:33;19.57;;;16.93;;
23163;SDS011;31429;42.674;23.350;2022-09-09T02:41:46;19.00;;;17.20;;
23163;SDS011;31429;42.674;23.350;2022-09-09T02:42:51;19.10;;;16.87;;
23163;SDS011;31429;42.674;23.350;2022-09-09T02:43:55;18.77;;;16.97;;
23163;SDS011;31429;42.674;23.350;2022-09-09T02:44:59;19.27;;;17.13;;
23163;SDS011;31429;42.674;23.350;2022-09-09T02:46:27;17.57;;;15.87;;
23163;SDS011;31429;42.674;23.350;2022-09-09T02:48:40;19.60;;;17.07;;
23163;SDS011;31429;42.674;23.350;2022-09-09T02:50:17;19.40;;;16.93;;
23163;SDS011;31429;42.674;23.350;2022-09-09T02:51:50;18.77;;;16.43;;
23163;SDS011;31429;42.674;23.350;2022-09-09T02:54:44;19.47;;;17.37;;
23163;SDS011;31429;42.674;23.350;2022-09-09T02:56:13;19.37;;;17.33;;
23163;SDS011;31429;42.674;23.350;2022-09-09T02:59:43;19.70;;;17.70;;
23163;SDS011;31429;42.674;23.350;2022-09-09T03:01:17;20.37;;;17.30;;
23163;SDS011;31429;42.674;23.350;2022-09-09T03:02:23;20.40;;;18.30;;
23163;SDS011;31429;42.674;23.350;2022-09-09T03:42:11;24.90;;;20.27;;
23163;SDS011;31429;42.674;23.350;2022-09-09T03:43:36;21.87;;;19.77;;
23163;SDS011;31429;42.674;23.350;2022-09-09T03:44:39;22.03;;;19.13;;
23163;SDS011;31429;42.674;23.350;2022-09-09T03:46:04;21.30;;;19.30;;
23163;SDS011;31429;42.674;23.350;2022-09-09T03:47:07;21.00;;;18.90;;
23163;SDS011;31429;42.674;23.350;2022-09-09T03:48:08;22.70;;;20.40;;
23163;SDS011;31429;42.674;23.350;2022-09-09T03:49:53;22.17;;;19.87;;
23163;SDS011;31429;42.674;23.350;2022-09-09T03:50:54;23.07;;;20.43;;
23163;SDS011;31429;42.674;23.350;2022-09-09T03:52:02;22.63;;;20.27;;
23163;SDS011;31429;42.674;23.350;2022-09-09T03:53:05;22.93;;;20.60;;
23163;SDS011;31429;42.674;23.350;2022-09-09T03:54:26;23.50;;;20.83;;
23163;SDS011;31429;42.674;23.350;2022-09-09T03:55:54;22.77;;;20.10;;
23163;SDS011;31429;42.674;23.350;2022-09-09T03:59:22;22.90;;;19.67;;
23163;SDS011;31429;42.674;23.350;2022-09-09T04:02:50;22.93;;;20.50;;
23163;SDS011;31429;42.674;23.350;2022-09-09T04:04:19;23.00;;;20.33;;
23163;SDS011;31429;42.674;23.350;2022-09-09T04:06:18;22.43;;;20.13;;
23163;SDS011;31429;42.674;23.350;2022-09-09T04:08:29;22.97;;;20.70;;
23163;SDS011;31429;42.674;23.350;2022-09-09T04:09:32;24.13;;;21.63;;
23163;SDS011;31429;42.674;23.350;2022-09-09T04:10:35;23.70;;;21.40;;
23163;SDS011;31429;42.674;23.350;2022-09-09T04:12:07;23.30;;;20.50;;
23163;SDS011;31429;42.674;23.350;2022-09-09T04:13:08;23.90;;;21.50;;
23163;SDS011;31429;42.674;23.350;2022-09-09T04:16:35;23.40;;;21.13;;
23163;SDS011;31429;42.674;23.350;2022-09-09T04:17:43;24.90;;;21.90;;
23163;SDS011;31429;42.674;23.350;2022-09-09T04:19:09;21.93;;;19.73;;
23163;SDS011;31429;42.674;23.350;2022-09-09T04:21:12;22.10;;;20.00;;
23163;SDS011;31429;42.674;23.350;2022-09-09T04:22:16;23.40;;;20.80;;
23163;SDS011;31429;42.674;23.350;2022-09-09T04:23:19;23.53;;;21.37;;
23163;SDS011;31429;42.674;23.350;2022-09-09T04:24:26;25.30;;;22.30;;
23163;SDS011;31429;42.674;23.350;2022-09-09T04:25:47;24.53;;;21.90;;
23163;SDS011;31429;42.674;23.350;2022-09-09T04:26:54;23.77;;;21.43;;
23163;SDS011;31429;42.674;23.350;2022-09-09T04:27:58;23.57;;;20.80;;
23163;SDS011;31429;42.674;23.350;2022-09-09T04:50:35;21.63;;;19.43;;
23163;SDS011;31429;42.674;23.350;2022-09-09T04:51:36;22.77;;;19.40;;
23163;SDS011;31429;42.674;23.350;2022-09-09T04:52:37;21.37;;;19.27;;
23163;SDS011;31429;42.674;23.350;2022-09-09T04:53:39;21.63;;;19.40;;
23163;SDS011;31429;42.674;23.350;2022-09-09T04:55:00;20.80;;;18.77;;
23163;SDS011;31429;42.674;23.350;2022-09-09T04:56:04;20.53;;;18.43;;
23163;SDS011;31429;42.674;23.350;2022-09-09T04:57:07;21.07;;;18.23;;
23163;SDS011;31429;42.674;23.350;2022-09-09T04:58:27;21.07;;;18.87;;
23163;SDS011;31429;42.674;23.350;2022-09-09T04:59:28;21.97;;;18.53;;
23163;SDS011;31429;42.674;23.350;2022-09-09T05:00:30;20.73;;;17.83;;
23163;SDS011;31429;42.674;23.350;2022-09-09T05:01:34;20.73;;;18.20;;
23163;SDS011;31429;42.674;23.350;2022-09-09T05:02:36;20.77;;;18.20;;
23163;SDS011;31429;42.674;23.350;2022-09-09T05:03:40;20.97;;;17.97;;
23163;SDS011;31429;42.674;23.350;2022-09-09T05:04:42;20.37;;;18.20;;
23163;SDS011;31429;42.674;23.350;2022-09-09T05:05:46;20.83;;;17.80;;
23163;SDS011;31429;42.674;23.350;2022-09-09T05:06:48;19.63;;;17.53;;
23163;SDS011;31429;42.674;23.350;2022-09-09T05:07:50;19.90;;;17.77;;
23163;SDS011;31429;42.674;23.350;2022-09-09T05:08:53;18.83;;;17.03;;
23163;SDS011;31429;42.674;23.350;2022-09-09T05:09:54;19.20;;;17.27;;
23163;SDS011;31429;42.674;23.350;2022-09-09T05:10:56;19.90;;;17.63;;
23163;SDS011;31429;42.674;23.350;2022-09-09T05:11:59;19.07;;;17.17;;
23163;SDS011;31429;42.674;23.350;2022-09-09T05:13:01;22.90;;;17.63;;
23163;SDS011;31429;42.674;23.350;2022-09-09T05:14:02;18.53;;;16.87;;
23163;SDS011;31429;42.674;23.350;2022-09-09T05:15:25;18.93;;;16.40;;
23163;SDS011;31429;42.674;23.350;2022-09-09T05:16:26;18.40;;;16.50;;
23163;SDS011;31429;42.674;23.350;2022-09-09T05:17:27;17.50;;;15.73;;
23163;SDS011;31429;42.674;23.350;2022-09-09T05:18:29;20.00;;;16.53;;
23163;SDS011;31429;42.674;23.350;2022-09-09T05:19:30;18.13;;;16.33;;
23163;SDS011;31429;42.674;23.350;2022-09-09T05:20:31;20.00;;;16.70;;
23163;SDS011;31429;42.674;23.350;2022-09-09T05:21:35;19.67;;;17.67;;
23163;SDS011;31429;42.674;23.350;2022-09-09T05:22:37;19.30;;;17.30;;
23163;SDS011;31429;42.674;23.350;2022-09-09T05:23:38;20.57;;;18.23;;
23163;SDS011;31429;42.674;23.350;2022-09-09T05:24:41;26.27;;;17.70;;
23163;SDS011;31429;42.674;23.350;2022-09-09T05:25:43;18.80;;;16.53;;
23163;SDS011;31429;42.674;23.350;2022-09-09T05:26:46;22.67;;;17.07;;
23163;SDS011;31429;42.674;23.350;2022-09-09T05:27:48;17.87;;;16.07;;
23163;SDS011;31429;42.674;23.350;2022-09-09T05:28:55;17.90;;;16.03;;
23163;SDS011;31429;42.674;23.350;2022-09-09T05:29:59;20.23;;;15.83;;
23163;SDS011;31429;42.674;23.350;2022-09-09T05:31:03;18.33;;;16.47;;
23163;SDS011;31429;42.674;23.350;2022-09-09T05:32:29;17.93;;;15.83;;
23163;SDS011;31429;42.674;23.350;2022-09-09T05:33:34;18.77;;;16.87;;
23163;SDS011;31429;42.674;23.350;2022-09-09T05:34:58;19.23;;;15.97;;
23163;SDS011;31429;42.674;23.350;2022-09-09T05:36:06;17.03;;;15.33;;
23163;SDS011;31429;42.674;23.350;2022-09-09T05:37:11;19.97;;;16.80;;
23163;SDS011;31429;42.674;23.350;2022-09-09T05:39:12;19.37;;;16.07;;
23163;SDS011;31429;42.674;23.350;2022-09-09T05:40:13;21.47;;;15.73;;
23163;SDS011;31429;42.674;23.350;2022-09-09T05:41:14;16.17;;;14.63;;
23163;SDS011;31429;42.674;23.350;2022-09-09T05:42:17;16.20;;;14.40;;
23163;SDS011;31429;42.674;23.350;2022-09-09T05:43:43;18.80;;;15.60;;
23163;SDS011;31429;42.674;23.350;2022-09-09T05:44:51;22.17;;;15.07;;
23163;SDS011;31429;42.674;23.350;2022-09-09T05:46:15;24.40;;;17.80;;
23163;SDS011;31429;42.674;23.350;2022-09-09T05:47:20;17.73;;;15.80;;
23163;SDS011;31429;42.674;23.350;2022-09-09T05:48:24;17.23;;;15.20;;
23163;SDS011;31429;42.674;23.350;2022-09-09T05:52:07;21.03;;;17.33;;
23163;SDS011;31429;42.674;23.350;2022-09-09T05:53:12;17.27;;;15.33;;
23163;SDS011;31429;42.674;23.350;2022-09-09T05:54:15;16.57;;;14.17;;
23163;SDS011;31429;42.674;23.350;2022-09-09T05:55:19;17.77;;;15.33;;
23163;SDS011;31429;42.674;23.350;2022-09-09T05:56:21;16.57;;;13.80;;
23163;SDS011;31429;42.674;23.350;2022-09-09T05:57:25;17.13;;;15.27;;
23163;SDS011;31429;42.674;23.350;2022-09-09T05:58:27;18.37;;;14.83;;
23163;SDS011;31429;42.674;23.350;2022-09-09T05:59:28;21.37;;;15.70;;
23163;SDS011;31429;42.674;23.350;2022-09-09T06:00:30;19.03;;;14.33;;
23163;SDS011;31429;42.674;23.350;2022-09-09T06:01:33;20.73;;;14.67;;
23163;SDS011;31429;42.674;23.350;2022-09-09T06:02:54;23.33;;;14.87;;
23163;SDS011;31429;42.674;23.350;2022-09-09T06:03:55;16.03;;;14.33;;
23163;SDS011;31429;42.674;23.350;2022-09-09T06:04:57;21.90;;;16.70;;
23163;SDS011;31429;42.674;23.350;2022-09-09T06:05:59;16.73;;;15.13;;
23163;SDS011;31429;42.674;23.350;2022-09-09T06:07:01;18.93;;;15.60;;
23163;SDS011;31429;42.674;23.350;2022-09-09T06:08:02;19.40;;;15.30;;
23163;SDS011;31429;42.674;23.350;2022-09-09T06:09:09;19.03;;;17.23;;
23163;SDS011;31429;42.674;23.350;2022-09-09T06:10:15;28.53;;;17.30;;
23163;SDS011;31429;42.674;23.350;2022-09-09T06:11:23;19.10;;;15.90;;
23163;SDS011;31429;42.674;23.350;2022-09-09T06:12:26;19.17;;;15.60;;
23163;SDS011;31429;42.674;23.350;2022-09-09T06:13:49;19.13;;;14.87;;
23163;SDS011;31429;42.674;23.350;2022-09-09T06:14:54;18.33;;;14.03;;
23163;SDS011;31429;42.674;23.350;2022-09-09T06:15:57;15.57;;;13.23;;
23163;SDS011;31429;42.674;23.350;2022-09-09T06:17:00;17.97;;;13.93;;
23163;SDS011;31429;42.674;23.350;2022-09-09T06:18:04;17.33;;;13.83;;
23163;SDS011;31429;42.674;23.350;2022-09-09T06:19:10;15.70;;;14.20;;
23163;SDS011;31429;42.674;23.350;2022-09-09T06:20:15;15.67;;;14.20;;
23163;SDS011;31429;42.674;23.350;2022-09-09T06:21:18;15.17;;;13.57;;
23163;SDS011;31429;42.674;23.350;2022-09-09T06:22:21;15.10;;;13.57;;
23163;SDS011;31429;42.674;23.350;2022-09-09T06:23:22;20.73;;;14.50;;
23163;SDS011;31429;42.674;23.350;2022-09-09T06:24:32;17.30;;;14.57;;
23163;SDS011;31429;42.674;23.350;2022-09-09T06:25:34;14.37;;;12.87;;
23163;SDS011;31429;42.674;23.350;2022-09-09T06:26:36;15.93;;;13.70;;
23163;SDS011;31429;42.674;23.350;2022-09-09T06:27:42;19.40;;;13.40;;
23163;SDS011;31429;42.674;23.350;2022-09-09T06:28:54;17.13;;;14.07;;
23163;SDS011;31429;42.674;23.350;2022-09-09T06:30:02;21.40;;;13.83;;
23163;SDS011;31429;42.674;23.350;2022-09-09T06:31:08;17.17;;;13.33;;
23163;SDS011;31429;42.674;23.350;2022-09-09T06:32:31;18.87;;;12.73;;
23163;SDS011;31429;42.674;23.350;2022-09-09T06:33:37;15.47;;;12.70;;
23163;SDS011;31429;42.674;23.350;2022-09-09T06:34:44;15.07;;;13.23;;
23163;SDS011;31429;42.674;23.350;2022-09-09T06:35:50;15.13;;;13.53;;
23163;SDS011;31429;42.674;23.350;2022-09-09T06:36:53;16.40;;;13.00;;
23163;SDS011;31429;42.674;23.350;2022-09-09T06:37:56;15.87;;;12.73;;
23163;SDS011;31429;42.674;23.350;2022-09-09T06:39:19;15.80;;;13.00;;
23163;SDS011;31429;42.674;23.350;2022-09-09T06:40:25;18.37;;;11.27;;
23163;SDS011;31429;42.674;23.350;2022-09-09T06:41:52;20.87;;;11.67;;
23163;SDS011;31429;42.674;23.350;2022-09-09T06:43:03;14.20;;;10.60;;
23163;SDS011;31429;42.674;23.350;2022-09-09T06:44:30;12.97;;;11.57;;
23163;SDS011;31429;42.674;23.350;2022-09-09T06:45:37;23.50;;;11.97;;
23163;SDS011;31429;42.674;23.350;2022-09-09T06:47:05;17.20;;;11.13;;
23163;SDS011;31429;42.674;23.350;2022-09-09T06:48:28;16.53;;;10.23;;
23163;SDS011;31429;42.674;23.350;2022-09-09T06:49:59;9.87;;;8.37;;
23163;SDS011;31429;42.674;23.350;2022-09-09T06:51:45;13.30;;;9.00;;
23163;SDS011;31429;42.674;23.350;2022-09-09T06:53:10;11.33;;;8.43;;
23163;SDS011;31429;42.674;23.350;2022-09-09T06:54:32;15.93;;;8.00;;
23163;SDS011;31429;42.674;23.350;2022-09-09T06:56:24;12.67;;;8.27;;
23163;SDS011;31429;42.674;23.350;2022-09-09T06:57:28;10.17;;;7.80;;
23163;SDS011;31429;42.674;23.350;2022-09-09T06:58:32;10.77;;;7.30;;
23163;SDS011;31429;42.674;23.350;2022-09-09T07:36:14;26.27;;;18.73;;
23163;SDS011;31429;42.674;23.350;2022-09-09T07:37:43;23.57;;;18.97;;
23163;SDS011;31429;42.674;23.350;2022-09-09T07:48:32;10.17;;;8.00;;
23163;SDS011;31429;42.674;23.350;2022-09-09T07:59:14;7.70;;;6.80;;
23163;SDS011;31429;42.674;23.350;2022-09-09T08:00:19;10.03;;;7.00;;
23163;SDS011;31429;42.674;23.350;2022-09-09T08:01:26;8.97;;;7.07;;
23163;SDS011;31429;42.674;23.350;2022-09-09T08:05:15;11.30;;;6.85;;
23163;SDS011;31429;42.674;23.350;2022-09-09T08:06:18;13.10;;;7.68;;
23163;SDS011;31429;42.674;23.350;2022-09-09T08:07:30;8.88;;;7.97;;
23163;SDS011;31429;42.674;23.350;2022-09-09T08:36:55;11.40;;;7.20;;
23163;SDS011;31429;42.674;23.350;2022-09-09T21:16:36;13.73;;;12.23;;
23163;SDS011;31429;42.674;23.350;2022-09-09T21:19:29;14.13;;;12.17;;
23163;SDS011;31429;42.674;23.350;2022-09-09T21:28:36;18.17;;;13.63;;
23163;SDS011;31429;42.674;23.350;2022-09-09T21:30:04;15.33;;;12.93;;
23163;SDS011;31429;42.674;23.350;2022-09-09T21:31:46;17.13;;;13.47;;
23163;SDS011;31429;42.674;23.350;2022-09-09T22:13:02;18.83;;;16.83;;
23163;SDS011;31429;42.674;23.350;2022-09-09T22:14:12;16.70;;;14.10;;
23163;SDS011;31429;42.674;23.350;2022-09-09T22:15:24;50.03;;;39.03;;
23163;SDS011;31429;42.674;23.350;2022-09-09T22:16:28;135.30;;;105.13;;
23163;SDS011;31429;42.674;23.350;2022-09-09T22:17:32;82.70;;;62.70;;
23163;SDS011;31429;42.674;23.350;2022-09-09T22:19:04;20.40;;;17.43;;
23163;SDS011;31429;42.674;23.350;2022-09-09T22:20:15;25.03;;;19.10;;
23163;SDS011;31429;42.674;23.350;2022-09-09T22:21:29;20.90;;;18.67;;
23163;SDS011;31429;42.674;23.350;2022-09-09T22:22:38;21.87;;;16.03;;
23163;SDS011;31429;42.674;23.350;2022-09-09T22:23:49;20.53;;;14.67;;
23163;SDS011;31429;42.674;23.350;2022-09-09T22:24:57;16.57;;;14.10;;
23163;SDS011;31429;42.674;23.350;2022-09-09T22:26:20;18.23;;;15.03;;
23163;SDS011;31429;42.674;23.350;2022-09-09T22:31:11;17.70;;;14.03;;
23163;SDS011;31429;42.674;23.350;2022-09-09T22:32:16;16.37;;;14.70;;
23163;SDS011;31429;42.674;23.350;2022-09-09T22:33:38;17.80;;;13.80;;
23163;SDS011;31429;42.674;23.350;2022-09-09T22:34:50;24.70;;;18.77;;
23163;SDS011;31429;42.674;23.350;2022-09-09T22:36:32;21.57;;;17.07;;
23163;SDS011;31429;42.674;23.350;2022-09-09T22:37:37;19.40;;;17.33;;
23163;SDS011;31429;42.674;23.350;2022-09-09T22:38:41;19.70;;;14.77;;
23163;SDS011;31429;42.674;23.350;2022-09-09T22:40:14;17.67;;;14.47;;
23163;SDS011;31429;42.674;23.350;2022-09-09T22:41:40;16.03;;;14.37;;
23163;SDS011;31429;42.674;23.350;2022-09-09T22:43:03;19.83;;;17.07;;
23163;SDS011;31429;42.674;23.350;2022-09-09T22:44:13;25.40;;;17.87;;
23163;SDS011;31429;42.674;23.350;2022-09-09T22:45:35;19.80;;;15.77;;
23163;SDS011;31429;42.674;23.350;2022-09-09T22:47:17;35.40;;;27.97;;
23163;SDS011;31429;42.674;23.350;2022-09-09T22:48:35;21.27;;;16.53;;
23163;SDS011;31429;42.674;23.350;2022-09-09T22:49:44;22.23;;;18.80;;
23163;SDS011;31429;42.674;23.350;2022-09-09T22:51:12;30.67;;;25.83;;
23163;SDS011;31429;42.674;23.350;2022-09-09T22:52:24;28.27;;;25.27;;
23163;SDS011;31429;42.674;23.350;2022-09-09T22:53:48;17.83;;;15.87;;
23163;SDS011;31429;42.674;23.350;2022-09-09T22:55:10;19.97;;;16.23;;
23163;SDS011;31429;42.674;23.350;2022-09-09T22:56:22;18.00;;;15.97;;
23163;SDS011;31429;42.674;23.350;2022-09-09T22:57:29;17.53;;;15.37;;
23163;SDS011;31429;42.674;23.350;2022-09-09T22:58:43;23.67;;;18.83;;
23163;SDS011;31429;42.674;23.350;2022-09-09T23:00:05;25.20;;;20.20;;
23163;SDS011;31429;42.674;23.350;2022-09-09T23:01:18;18.33;;;16.50;;
23163;SDS011;31429;42.674;23.350;2022-09-09T23:20:12;19.60;;;15.47;;
23163;SDS011;31429;42.674;23.350;2022-09-09T23:21:22;21.77;;;15.00;;
23163;SDS011;31429;42.674;23.350;2022-09-09T23:22:30;23.67;;;17.27;;
23163;SDS011;31429;42.674;23.350;2022-09-09T23:23:56;20.30;;;17.90;;
23163;SDS011;31429;42.674;23.350;2022-09-09T23:25:08;24.40;;;21.07;;
23163;SDS011;31429;42.674;23.350;2022-09-09T23:26:11;20.40;;;17.00;;
23163;SDS011;31429;42.674;23.350;2022-09-09T23:28:42;25.27;;;20.03;;
23163;SDS011;31429;42.674;23.350;2022-09-09T23:30:37;21.53;;;19.20;;
23163;SDS011;31429;42.674;23.350;2022-09-09T23:31:46;20.60;;;16.33;;
23163;SDS011;31429;42.674;23.350;2022-09-09T23:32:48;16.30;;;14.67;;
23163;SDS011;31429;42.674;23.350;2022-09-09T23:33:55;17.23;;;15.43;;
